Terminal Aerodrome Forecast
Issued by NWS

Home | Current Version | Previous Version | Text Only | Print | Product List | Glossary On
Versions: 1 2 3 4 5 6 7 8 9 10 11 12 13 14 15 16 17 18 19
000
FTUS46 KSGX 212300
TAFONT
TAF
KONT 212340Z 2200/2306 25010KT P6SM SKC
     FM220400 VRB04KT P6SM SKC
     FM221200 VRB04KT P6SM BKN010
     FM221600 VRB04KT P6SM FEW012
     FM222100 26011KT P6SM SKC
     FM230400 VRB04KT P6SM SKC=

USA.gov is the U.S. government's official web portal to all federal, state and local government web resources and services.